Have a Safe July 4th! 

Flight Track Log - Related Links

Times and Time Zones

All times are in EDT time to prevent confusion due to time zone crossing. See the CTL18 flight status page for this flight to view local times or setup timezone preferences in your user account.

Time Position Orientation Groundspeed Altitude Reporting Facility
EDT Latitude Longitude Course Direction KTS MPH feet Rate Location/Type
Tue 08:08:00 PM 43.3619 -84.0057 160° South  Level Estimated
Tue 08:09:00 PM 43.3366 -83.9838 148° Southeast  Level FlightAware Approximate
Tue 08:10:00 PM 43.3080 -83.9718 160° South  Level Estimated
Tue 08:11:00 PM 43.2807 -83.9553 156° South  Level FlightAware Approximate
Tue 08:12:00 PM 43.2533 -83.9388 156° South  Level FlightAware Approximate
Tue 08:13:00 PM 43.2247 -83.9271 163° South  Level Estimated
Tue 08:14:00 PM 43.1965 -83.9134 161° South  Level FlightAware Approximate
Tue 08:15:00 PM 43.1683 -83.8997 161° South  Level FlightAware Approximate
Tue 08:15:36 PM 42.9772 -83.8297 160° South 169 194 5,000  Level Cleveland Center
Tue 08:16:00 PM 43.1401 -83.8861 161° South  Level FlightAware Approximate
Tue 08:16:43 PM 42.9281 -83.8017 157° South 169 194 5,000  Level Cleveland Center
Tue 08:17:00 PM 43.1115 -83.8746 160° South  Level Estimated
Tue 08:17:44 PM 42.8872 -83.7711 151° Southeast 172 198 5,000  Level Cleveland Center
Tue 08:18:00 PM 43.0835 -83.8603 160° South  Level FlightAware Approximate
Tue 08:18:45 PM 42.8417 -83.7575 168° South 170 196 5,000  Level Cleveland Center
Tue 08:19:00 PM 43.0555 -83.8461 160° South  Level FlightAware Approximate
Tue 08:19:52 PM 42.7903 -83.7350 162° South 169 194 5,100  Level Cleveland Center
Tue 08:20:00 PM 43.0275 -83.8318 160° South  Level FlightAware Approximate
Tue 08:20:53 PM 42.7425 -83.7214 168° South 168 193 5,100  Level Cleveland Center
Tue 08:21:00 PM 42.9995 -83.8176 160° South  Level FlightAware Approximate
Tue 08:21:53 PM 42.6994 -83.7022 162° South 170 196 5,000  Level Cleveland Center
Tue 08:22:54 PM 42.6497 -83.6858 166° South 170 196 5,000 -103 Level Cleveland Center
Tue 08:23:49 PM 42.6086 -83.6694 164° South 168 193 4,800 -517 Descending Cleveland Center
Tue 08:24:50 PM 42.5569 -83.6531 167° South 190 219 4,000 -780 Descending Cleveland Center
Tue 08:25:52 PM 42.5033 -83.6306 163° South 200 230 3,200 -492 Descending Cleveland Center
Tue 08:26:52 PM 42.4556 -83.6142 166° South 179 206 3,000 -99 Descending Cleveland Center
Tue 08:27:53 PM 42.4061 -83.5922 162° South 171 197 3,000 -246 Level Cleveland Center
Tue 08:28:54 PM 42.3611 -83.5675 158° South 181 208 2,500 -492 Descending Cleveland Center
Tue 08:29:55 PM 42.3136 -83.5428 159° South 181 208 2,000 -393 Descending Cleveland Center
Tue 08:30:56 PM 42.2706 -83.5183 157° South 150 173 1,700 -295 Descending Cleveland Center
Tue 08:32:00 PM 42.2379 -83.5190 160° South  Level FlightAware Approximate
Tue 08:39:00 PM 42.2333 -83.5167 160° South  Level FlightAware Approximate
Tue 08:40:00 PM 42.2393 -83.5310 160° South  Level Estimated

Login

Don't have an account? Register now (free) for customized features, flight alerts, and more!